sensor_id;sensor_type;location;lat;lon;timestamp;P1;durP1;ratioP1;P2;durP2;ratioP2
7377;SDS011;3730;50.856;12.776;2023-04-16T00:02:01;85.73;;;24.13;;
7377;SDS011;3730;50.856;12.776;2023-04-16T00:04:27;44.53;;;21.40;;
7377;SDS011;3730;50.856;12.776;2023-04-16T00:06:53;58.17;;;23.20;;
7377;SDS011;3730;50.856;12.776;2023-04-16T00:09:19;57.53;;;22.30;;
7377;SDS011;3730;50.856;12.776;2023-04-16T00:11:45;57.77;;;21.50;;
7377;SDS011;3730;50.856;12.776;2023-04-16T00:14:10;67.57;;;22.60;;
7377;SDS011;3730;50.856;12.776;2023-04-16T00:16:36;62.07;;;22.60;;
7377;SDS011;3730;50.856;12.776;2023-04-16T00:19:02;53.53;;;21.20;;
7377;SDS011;3730;50.856;12.776;2023-04-16T00:21:28;61.83;;;21.53;;
7377;SDS011;3730;50.856;12.776;2023-04-16T00:23:54;63.23;;;20.33;;
7377;SDS011;3730;50.856;12.776;2023-04-16T00:26:19;41.60;;;20.30;;
7377;SDS011;3730;50.856;12.776;2023-04-16T00:28:45;58.83;;;20.73;;
7377;SDS011;3730;50.856;12.776;2023-04-16T00:31:10;51.27;;;20.57;;
7377;SDS011;3730;50.856;12.776;2023-04-16T00:33:36;40.10;;;20.23;;
7377;SDS011;3730;50.856;12.776;2023-04-16T00:36:02;50.30;;;19.47;;
7377;SDS011;3730;50.856;12.776;2023-04-16T00:38:27;72.67;;;20.60;;
7377;SDS011;3730;50.856;12.776;2023-04-16T00:40:54;59.17;;;18.77;;
7377;SDS011;3730;50.856;12.776;2023-04-16T00:43:23;69.00;;;19.83;;
7377;SDS011;3730;50.856;12.776;2023-04-16T00:45:54;47.63;;;18.83;;
7377;SDS011;3730;50.856;12.776;2023-04-16T00:48:20;43.23;;;17.73;;
7377;SDS011;3730;50.856;12.776;2023-04-16T00:50:46;29.97;;;18.07;;
7377;SDS011;3730;50.856;12.776;2023-04-16T00:53:12;38.43;;;17.40;;
7377;SDS011;3730;50.856;12.776;2023-04-16T00:55:39;38.37;;;16.87;;
7377;SDS011;3730;50.856;12.776;2023-04-16T00:58:05;41.27;;;16.17;;
7377;SDS011;3730;50.856;12.776;2023-04-16T01:00:30;32.07;;;17.27;;
7377;SDS011;3730;50.856;12.776;2023-04-16T01:02:56;31.63;;;16.83;;
7377;SDS011;3730;50.856;12.776;2023-04-16T01:05:24;45.23;;;18.03;;
7377;SDS011;3730;50.856;12.776;2023-04-16T01:07:50;27.87;;;16.10;;
7377;SDS011;3730;50.856;12.776;2023-04-16T01:10:16;28.70;;;15.70;;
7377;SDS011;3730;50.856;12.776;2023-04-16T01:12:41;24.20;;;15.80;;
7377;SDS011;3730;50.856;12.776;2023-04-16T01:15:07;26.60;;;16.03;;
7377;SDS011;3730;50.856;12.776;2023-04-16T01:17:33;29.93;;;16.20;;
7377;SDS011;3730;50.856;12.776;2023-04-16T01:19:59;34.47;;;16.80;;
7377;SDS011;3730;50.856;12.776;2023-04-16T01:22:26;25.97;;;15.90;;
7377;SDS011;3730;50.856;12.776;2023-04-16T01:24:52;25.47;;;15.87;;
7377;SDS011;3730;50.856;12.776;2023-04-16T01:27:17;23.40;;;16.03;;
7377;SDS011;3730;50.856;12.776;2023-04-16T01:29:43;22.93;;;14.87;;
7377;SDS011;3730;50.856;12.776;2023-04-16T01:32:09;24.87;;;16.03;;
7377;SDS011;3730;50.856;12.776;2023-04-16T01:34:34;21.73;;;15.00;;
7377;SDS011;3730;50.856;12.776;2023-04-16T01:37:01;22.50;;;14.33;;
7377;SDS011;3730;50.856;12.776;2023-04-16T01:39:27;22.77;;;15.03;;
7377;SDS011;3730;50.856;12.776;2023-04-16T01:41:53;21.23;;;14.57;;
7377;SDS011;3730;50.856;12.776;2023-04-16T01:44:19;19.70;;;13.77;;
7377;SDS011;3730;50.856;12.776;2023-04-16T01:46:45;20.20;;;14.90;;
7377;SDS011;3730;50.856;12.776;2023-04-16T01:49:11;18.63;;;13.87;;
7377;SDS011;3730;50.856;12.776;2023-04-16T01:51:37;19.57;;;14.17;;
7377;SDS011;3730;50.856;12.776;2023-04-16T01:54:02;21.33;;;13.87;;
7377;SDS011;3730;50.856;12.776;2023-04-16T01:56:28;17.70;;;13.33;;
7377;SDS011;3730;50.856;12.776;2023-04-16T01:58:54;17.63;;;13.73;;
7377;SDS011;3730;50.856;12.776;2023-04-16T02:01:19;18.00;;;13.67;;
7377;SDS011;3730;50.856;12.776;2023-04-16T02:03:45;17.77;;;14.03;;
7377;SDS011;3730;50.856;12.776;2023-04-16T02:06:11;16.80;;;13.63;;
7377;SDS011;3730;50.856;12.776;2023-04-16T02:08:37;17.13;;;13.73;;
7377;SDS011;3730;50.856;12.776;2023-04-16T02:11:02;20.27;;;15.00;;
7377;SDS011;3730;50.856;12.776;2023-04-16T02:13:28;22.53;;;17.07;;
7377;SDS011;3730;50.856;12.776;2023-04-16T02:15:53;25.10;;;18.60;;
7377;SDS011;3730;50.856;12.776;2023-04-16T02:18:19;26.73;;;18.50;;
7377;SDS011;3730;50.856;12.776;2023-04-16T02:20:46;26.87;;;18.93;;
7377;SDS011;3730;50.856;12.776;2023-04-16T02:23:13;30.93;;;20.37;;
7377;SDS011;3730;50.856;12.776;2023-04-16T02:25:43;35.63;;;20.70;;
7377;SDS011;3730;50.856;12.776;2023-04-16T02:28:10;31.13;;;20.00;;
7377;SDS011;3730;50.856;12.776;2023-04-16T02:30:37;46.17;;;22.10;;
7377;SDS011;3730;50.856;12.776;2023-04-16T02:33:04;48.67;;;22.13;;
7377;SDS011;3730;50.856;12.776;2023-04-16T02:35:31;38.13;;;23.33;;
7377;SDS011;3730;50.856;12.776;2023-04-16T02:37:57;50.20;;;23.97;;
7377;SDS011;3730;50.856;12.776;2023-04-16T02:40:23;51.60;;;25.33;;
7377;SDS011;3730;50.856;12.776;2023-04-16T02:42:49;50.17;;;25.13;;
7377;SDS011;3730;50.856;12.776;2023-04-16T02:45:15;58.43;;;26.20;;
7377;SDS011;3730;50.856;12.776;2023-04-16T02:47:40;45.17;;;26.53;;
7377;SDS011;3730;50.856;12.776;2023-04-16T02:50:06;42.57;;;23.73;;
7377;SDS011;3730;50.856;12.776;2023-04-16T02:52:32;52.80;;;24.37;;
7377;SDS011;3730;50.856;12.776;2023-04-16T02:54:58;50.67;;;27.73;;
7377;SDS011;3730;50.856;12.776;2023-04-16T02:57:24;52.73;;;25.27;;
7377;SDS011;3730;50.856;12.776;2023-04-16T02:59:50;57.20;;;27.20;;
7377;SDS011;3730;50.856;12.776;2023-04-16T03:02:15;49.23;;;26.40;;
7377;SDS011;3730;50.856;12.776;2023-04-16T03:04:41;49.03;;;26.83;;
7377;SDS011;3730;50.856;12.776;2023-04-16T03:07:07;43.40;;;25.73;;
7377;SDS011;3730;50.856;12.776;2023-04-16T03:09:36;52.20;;;27.83;;
7377;SDS011;3730;50.856;12.776;2023-04-16T03:12:02;48.43;;;27.43;;
7377;SDS011;3730;50.856;12.776;2023-04-16T03:14:28;51.50;;;27.93;;
7377;SDS011;3730;50.856;12.776;2023-04-16T03:16:54;53.63;;;26.70;;
7377;SDS011;3730;50.856;12.776;2023-04-16T03:19:20;62.13;;;26.83;;
7377;SDS011;3730;50.856;12.776;2023-04-16T03:21:46;61.10;;;28.77;;
7377;SDS011;3730;50.856;12.776;2023-04-16T03:24:11;49.47;;;27.93;;
7377;SDS011;3730;50.856;12.776;2023-04-16T03:26:37;50.53;;;26.83;;
7377;SDS011;3730;50.856;12.776;2023-04-16T03:29:03;55.57;;;26.23;;
7377;SDS011;3730;50.856;12.776;2023-04-16T03:31:28;42.77;;;24.67;;
7377;SDS011;3730;50.856;12.776;2023-04-16T03:33:54;42.93;;;26.10;;
7377;SDS011;3730;50.856;12.776;2023-04-16T03:36:20;47.70;;;26.83;;
7377;SDS011;3730;50.856;12.776;2023-04-16T03:38:47;57.57;;;26.53;;
7377;SDS011;3730;50.856;12.776;2023-04-16T03:41:13;58.17;;;27.63;;
7377;SDS011;3730;50.856;12.776;2023-04-16T03:43:38;48.63;;;26.40;;
7377;SDS011;3730;50.856;12.776;2023-04-16T03:46:04;46.93;;;25.57;;
7377;SDS011;3730;50.856;12.776;2023-04-16T03:48:30;54.57;;;26.80;;
7377;SDS011;3730;50.856;12.776;2023-04-16T03:50:55;46.57;;;26.77;;
7377;SDS011;3730;50.856;12.776;2023-04-16T03:53:21;47.73;;;26.73;;
7377;SDS011;3730;50.856;12.776;2023-04-16T03:55:48;53.83;;;28.47;;
7377;SDS011;3730;50.856;12.776;2023-04-16T03:58:15;51.20;;;27.50;;
7377;SDS011;3730;50.856;12.776;2023-04-16T04:00:41;52.10;;;27.17;;
7377;SDS011;3730;50.856;12.776;2023-04-16T04:03:07;56.10;;;28.17;;
7377;SDS011;3730;50.856;12.776;2023-04-16T04:05:37;54.23;;;28.27;;
7377;SDS011;3730;50.856;12.776;2023-04-16T04:08:04;46.80;;;26.40;;
7377;SDS011;3730;50.856;12.776;2023-04-16T04:10:33;47.23;;;27.40;;
7377;SDS011;3730;50.856;12.776;2023-04-16T04:13:01;49.17;;;27.33;;
7377;SDS011;3730;50.856;12.776;2023-04-16T04:15:28;49.87;;;27.37;;
7377;SDS011;3730;50.856;12.776;2023-04-16T04:17:53;43.20;;;26.03;;
7377;SDS011;3730;50.856;12.776;2023-04-16T04:20:20;45.50;;;25.57;;
7377;SDS011;3730;50.856;12.776;2023-04-16T04:22:45;44.00;;;26.00;;
7377;SDS011;3730;50.856;12.776;2023-04-16T04:25:11;44.10;;;27.23;;
7377;SDS011;3730;50.856;12.776;2023-04-16T04:27:37;38.37;;;25.13;;
7377;SDS011;3730;50.856;12.776;2023-04-16T04:30:02;39.00;;;25.43;;
7377;SDS011;3730;50.856;12.776;2023-04-16T04:32:29;42.47;;;25.83;;
7377;SDS011;3730;50.856;12.776;2023-04-16T04:34:55;40.80;;;24.90;;
7377;SDS011;3730;50.856;12.776;2023-04-16T04:37:21;42.07;;;26.07;;
7377;SDS011;3730;50.856;12.776;2023-04-16T04:39:46;42.30;;;26.13;;
7377;SDS011;3730;50.856;12.776;2023-04-16T04:42:12;36.87;;;24.73;;
7377;SDS011;3730;50.856;12.776;2023-04-16T04:44:38;40.07;;;25.97;;
7377;SDS011;3730;50.856;12.776;2023-04-16T04:47:03;42.07;;;25.40;;
7377;SDS011;3730;50.856;12.776;2023-04-16T04:49:29;37.83;;;24.87;;
7377;SDS011;3730;50.856;12.776;2023-04-16T04:51:55;36.50;;;23.60;;
7377;SDS011;3730;50.856;12.776;2023-04-16T04:54:20;38.67;;;24.20;;
7377;SDS011;3730;50.856;12.776;2023-04-16T04:56:46;38.97;;;24.20;;
7377;SDS011;3730;50.856;12.776;2023-04-16T04:59:12;35.67;;;24.37;;
7377;SDS011;3730;50.856;12.776;2023-04-16T05:01:37;32.13;;;21.87;;
7377;SDS011;3730;50.856;12.776;2023-04-16T05:04:03;38.40;;;24.43;;
7377;SDS011;3730;50.856;12.776;2023-04-16T05:06:29;34.40;;;23.60;;
7377;SDS011;3730;50.856;12.776;2023-04-16T05:08:55;36.07;;;23.67;;
7377;SDS011;3730;50.856;12.776;2023-04-16T05:11:21;40.17;;;24.43;;
7377;SDS011;3730;50.856;12.776;2023-04-16T05:13:46;37.27;;;24.07;;
7377;SDS011;3730;50.856;12.776;2023-04-16T05:16:12;41.87;;;25.47;;
7377;SDS011;3730;50.856;12.776;2023-04-16T05:18:37;38.20;;;23.60;;
7377;SDS011;3730;50.856;12.776;2023-04-16T05:21:03;38.37;;;24.33;;
7377;SDS011;3730;50.856;12.776;2023-04-16T05:23:29;38.00;;;24.53;;
7377;SDS011;3730;50.856;12.776;2023-04-16T05:25:55;38.27;;;24.93;;
7377;SDS011;3730;50.856;12.776;2023-04-16T05:28:20;41.30;;;25.57;;
7377;SDS011;3730;50.856;12.776;2023-04-16T05:30:46;45.43;;;27.73;;
7377;SDS011;3730;50.856;12.776;2023-04-16T05:33:11;45.13;;;26.17;;
7377;SDS011;3730;50.856;12.776;2023-04-16T05:35:37;45.70;;;27.53;;
7377;SDS011;3730;50.856;12.776;2023-04-16T05:38:03;41.03;;;25.83;;
7377;SDS011;3730;50.856;12.776;2023-04-16T05:40:28;40.20;;;24.87;;
7377;SDS011;3730;50.856;12.776;2023-04-16T05:42:54;39.17;;;25.03;;
7377;SDS011;3730;50.856;12.776;2023-04-16T05:45:20;42.70;;;25.43;;
7377;SDS011;3730;50.856;12.776;2023-04-16T05:47:46;41.83;;;26.37;;
7377;SDS011;3730;50.856;12.776;2023-04-16T05:50:11;40.67;;;25.80;;
7377;SDS011;3730;50.856;12.776;2023-04-16T05:52:37;39.97;;;25.70;;
7377;SDS011;3730;50.856;12.776;2023-04-16T05:55:03;39.40;;;25.87;;
7377;SDS011;3730;50.856;12.776;2023-04-16T05:57:29;37.97;;;24.07;;
7377;SDS011;3730;50.856;12.776;2023-04-16T05:59:55;40.87;;;26.13;;
7377;SDS011;3730;50.856;12.776;2023-04-16T06:02:20;39.60;;;23.97;;
7377;SDS011;3730;50.856;12.776;2023-04-16T06:04:46;40.77;;;24.87;;
7377;SDS011;3730;50.856;12.776;2023-04-16T06:07:12;40.93;;;25.03;;
7377;SDS011;3730;50.856;12.776;2023-04-16T06:09:37;33.70;;;23.43;;
7377;SDS011;3730;50.856;12.776;2023-04-16T06:12:03;35.07;;;24.10;;
7377;SDS011;3730;50.856;12.776;2023-04-16T06:14:29;38.07;;;24.10;;
7377;SDS011;3730;50.856;12.776;2023-04-16T06:16:54;35.73;;;23.63;;
7377;SDS011;3730;50.856;12.776;2023-04-16T06:19:20;39.33;;;25.03;;
7377;SDS011;3730;50.856;12.776;2023-04-16T06:21:46;38.23;;;24.87;;
7377;SDS011;3730;50.856;12.776;2023-04-16T06:24:11;35.80;;;24.50;;
7377;SDS011;3730;50.856;12.776;2023-04-16T06:26:37;36.17;;;25.13;;
7377;SDS011;3730;50.856;12.776;2023-04-16T06:29:03;38.07;;;25.27;;
7377;SDS011;3730;50.856;12.776;2023-04-16T06:31:29;40.10;;;25.30;;
7377;SDS011;3730;50.856;12.776;2023-04-16T06:33:55;39.73;;;25.03;;
7377;SDS011;3730;50.856;12.776;2023-04-16T06:36:21;45.60;;;26.70;;
7377;SDS011;3730;50.856;12.776;2023-04-16T06:38:46;45.87;;;26.90;;
7377;SDS011;3730;50.856;12.776;2023-04-16T06:41:14;40.70;;;25.47;;
7377;SDS011;3730;50.856;12.776;2023-04-16T06:43:40;42.57;;;26.47;;
7377;SDS011;3730;50.856;12.776;2023-04-16T06:46:06;42.20;;;25.87;;
7377;SDS011;3730;50.856;12.776;2023-04-16T06:48:31;40.07;;;25.67;;
7377;SDS011;3730;50.856;12.776;2023-04-16T06:50:57;41.23;;;25.70;;
7377;SDS011;3730;50.856;12.776;2023-04-16T06:53:23;43.10;;;27.37;;
7377;SDS011;3730;50.856;12.776;2023-04-16T06:55:48;46.70;;;28.00;;
7377;SDS011;3730;50.856;12.776;2023-04-16T06:58:14;44.87;;;27.60;;
7377;SDS011;3730;50.856;12.776;2023-04-16T07:00:39;43.47;;;26.13;;
7377;SDS011;3730;50.856;12.776;2023-04-16T07:03:05;41.93;;;26.07;;
7377;SDS011;3730;50.856;12.776;2023-04-16T07:05:31;42.17;;;26.80;;
7377;SDS011;3730;50.856;12.776;2023-04-16T07:07:57;44.87;;;27.37;;
7377;SDS011;3730;50.856;12.776;2023-04-16T07:10:23;43.03;;;25.33;;
7377;SDS011;3730;50.856;12.776;2023-04-16T07:12:49;42.47;;;25.73;;
7377;SDS011;3730;50.856;12.776;2023-04-16T07:15:15;48.60;;;29.17;;
7377;SDS011;3730;50.856;12.776;2023-04-16T07:17:40;41.87;;;24.83;;
7377;SDS011;3730;50.856;12.776;2023-04-16T07:20:06;45.60;;;27.37;;
7377;SDS011;3730;50.856;12.776;2023-04-16T07:22:32;51.20;;;31.53;;
7377;SDS011;3730;50.856;12.776;2023-04-16T07:24:58;46.23;;;32.83;;
7377;SDS011;3730;50.856;12.776;2023-04-16T07:27:24;47.43;;;32.53;;
7377;SDS011;3730;50.856;12.776;2023-04-16T07:29:49;40.13;;;25.03;;
7377;SDS011;3730;50.856;12.776;2023-04-16T07:32:15;47.60;;;30.43;;
7377;SDS011;3730;50.856;12.776;2023-04-16T07:34:41;41.77;;;26.20;;
7377;SDS011;3730;50.856;12.776;2023-04-16T07:37:07;40.43;;;25.13;;
7377;SDS011;3730;50.856;12.776;2023-04-16T07:39:33;39.17;;;23.83;;
7377;SDS011;3730;50.856;12.776;2023-04-16T07:41:58;38.43;;;23.57;;
7377;SDS011;3730;50.856;12.776;2023-04-16T07:44:24;37.07;;;23.63;;
7377;SDS011;3730;50.856;12.776;2023-04-16T07:46:50;37.63;;;23.67;;
7377;SDS011;3730;50.856;12.776;2023-04-16T07:49:16;41.27;;;25.50;;
7377;SDS011;3730;50.856;12.776;2023-04-16T07:51:41;35.60;;;23.20;;
7377;SDS011;3730;50.856;12.776;2023-04-16T07:54:07;36.93;;;23.93;;
7377;SDS011;3730;50.856;12.776;2023-04-16T07:56:34;35.77;;;22.97;;
7377;SDS011;3730;50.856;12.776;2023-04-16T07:59:00;33.47;;;22.10;;
7377;SDS011;3730;50.856;12.776;2023-04-16T08:01:25;32.13;;;21.53;;
7377;SDS011;3730;50.856;12.776;2023-04-16T08:03:51;31.07;;;21.43;;
7377;SDS011;3730;50.856;12.776;2023-04-16T08:06:17;29.30;;;20.33;;
7377;SDS011;3730;50.856;12.776;2023-04-16T08:08:42;29.03;;;19.90;;
7377;SDS011;3730;50.856;12.776;2023-04-16T08:11:08;26.63;;;17.20;;
7377;SDS011;3730;50.856;12.776;2023-04-16T08:13:33;25.17;;;17.30;;
7377;SDS011;3730;50.856;12.776;2023-04-16T08:15:59;27.20;;;17.83;;
7377;SDS011;3730;50.856;12.776;2023-04-16T08:18:25;26.30;;;18.03;;
7377;SDS011;3730;50.856;12.776;2023-04-16T08:20:51;24.33;;;17.20;;
7377;SDS011;3730;50.856;12.776;2023-04-16T08:23:17;27.97;;;18.77;;
7377;SDS011;3730;50.856;12.776;2023-04-16T08:25:42;24.63;;;16.67;;
7377;SDS011;3730;50.856;12.776;2023-04-16T08:28:08;22.13;;;16.73;;
7377;SDS011;3730;50.856;12.776;2023-04-16T08:30:34;23.73;;;16.93;;
7377;SDS011;3730;50.856;12.776;2023-04-16T08:32:59;20.37;;;15.03;;
7377;SDS011;3730;50.856;12.776;2023-04-16T08:35:25;24.17;;;17.57;;
7377;SDS011;3730;50.856;12.776;2023-04-16T08:37:51;23.20;;;16.37;;
7377;SDS011;3730;50.856;12.776;2023-04-16T08:40:18;22.57;;;16.13;;
7377;SDS011;3730;50.856;12.776;2023-04-16T08:42:45;22.07;;;16.53;;
7377;SDS011;3730;50.856;12.776;2023-04-16T08:45:13;22.50;;;16.90;;
7377;SDS011;3730;50.856;12.776;2023-04-16T08:47:40;19.57;;;15.43;;
7377;SDS011;3730;50.856;12.776;2023-04-16T08:50:06;20.97;;;14.97;;
7377;SDS011;3730;50.856;12.776;2023-04-16T08:52:33;21.70;;;16.27;;
7377;SDS011;3730;50.856;12.776;2023-04-16T08:57:37;16.93;;;13.00;;
7377;SDS011;3730;50.856;12.776;2023-04-16T09:00:06;19.80;;;15.20;;
7377;SDS011;3730;50.856;12.776;2023-04-16T09:02:33;18.27;;;13.70;;
7377;SDS011;3730;50.856;12.776;2023-04-16T09:04:59;16.37;;;13.13;;
7377;SDS011;3730;50.856;12.776;2023-04-16T09:07:26;17.97;;;14.07;;
7377;SDS011;3730;50.856;12.776;2023-04-16T09:09:53;17.10;;;13.17;;
7377;SDS011;3730;50.856;12.776;2023-04-16T09:12:22;16.90;;;12.97;;
7377;SDS011;3730;50.856;12.776;2023-04-16T09:14:48;14.07;;;11.80;;
7377;SDS011;3730;50.856;12.776;2023-04-16T09:17:15;14.93;;;12.03;;
7377;SDS011;3730;50.856;12.776;2023-04-16T09:19:41;13.07;;;11.40;;
7377;SDS011;3730;50.856;12.776;2023-04-16T09:22:08;16.07;;;12.73;;
7377;SDS011;3730;50.856;12.776;2023-04-16T09:24:34;15.77;;;12.83;;
7377;SDS011;3730;50.856;12.776;2023-04-16T09:27:02;14.13;;;11.67;;
7377;SDS011;3730;50.856;12.776;2023-04-16T09:29:35;15.17;;;11.30;;
7377;SDS011;3730;50.856;12.776;2023-04-16T09:32:02;14.90;;;12.07;;
7377;SDS011;3730;50.856;12.776;2023-04-16T09:34:28;12.90;;;11.23;;
7377;SDS011;3730;50.856;12.776;2023-04-16T09:36:54;13.00;;;11.10;;
7377;SDS011;3730;50.856;12.776;2023-04-16T09:39:21;16.40;;;12.87;;
7377;SDS011;3730;50.856;12.776;2023-04-16T09:41:47;14.43;;;12.37;;
7377;SDS011;3730;50.856;12.776;2023-04-16T09:44:13;16.90;;;13.47;;
7377;SDS011;3730;50.856;12.776;2023-04-16T09:46:40;15.93;;;12.93;;
7377;SDS011;3730;50.856;12.776;2023-04-16T09:49:13;16.23;;;13.47;;
7377;SDS011;3730;50.856;12.776;2023-04-16T09:51:39;13.60;;;11.83;;
7377;SDS011;3730;50.856;12.776;2023-04-16T09:54:06;14.80;;;12.40;;
7377;SDS011;3730;50.856;12.776;2023-04-16T09:56:32;12.70;;;10.90;;
7377;SDS011;3730;50.856;12.776;2023-04-16T09:58:58;13.93;;;11.13;;
7377;SDS011;3730;50.856;12.776;2023-04-16T10:01:25;13.27;;;10.90;;
7377;SDS011;3730;50.856;12.776;2023-04-16T10:03:52;13.07;;;11.50;;
7377;SDS011;3730;50.856;12.776;2023-04-16T10:06:21;12.43;;;10.77;;
7377;SDS011;3730;50.856;12.776;2023-04-16T10:08:47;12.40;;;10.50;;
7377;SDS011;3730;50.856;12.776;2023-04-16T10:11:14;13.13;;;11.20;;
7377;SDS011;3730;50.856;12.776;2023-04-16T10:13:40;11.87;;;10.50;;
7377;SDS011;3730;50.856;12.776;2023-04-16T10:16:06;9.97;;;8.90;;
7377;SDS011;3730;50.856;12.776;2023-04-16T10:18:37;9.27;;;8.30;;
7377;SDS011;3730;50.856;12.776;2023-04-16T10:21:03;10.20;;;9.20;;
7377;SDS011;3730;50.856;12.776;2023-04-16T10:23:30;10.03;;;8.47;;
7377;SDS011;3730;50.856;12.776;2023-04-16T10:25:57;11.70;;;9.93;;
7377;SDS011;3730;50.856;12.776;2023-04-16T10:28:23;9.60;;;8.40;;
7377;SDS011;3730;50.856;12.776;2023-04-16T10:30:49;11.23;;;9.33;;
7377;SDS011;3730;50.856;12.776;2023-04-16T10:33:28;10.53;;;9.00;;
7377;SDS011;3730;50.856;12.776;2023-04-16T10:36:09;9.53;;;8.53;;
7377;SDS011;3730;50.856;12.776;2023-04-16T10:38:47;11.20;;;8.80;;
7377;SDS011;3730;50.856;12.776;2023-04-16T10:41:15;9.80;;;8.43;;
7377;SDS011;3730;50.856;12.776;2023-04-16T10:43:47;8.70;;;7.80;;
7377;SDS011;3730;50.856;12.776;2023-04-16T10:49:02;8.73;;;7.83;;
7377;SDS011;3730;50.856;12.776;2023-04-16T10:51:41;9.53;;;8.10;;
7377;SDS011;3730;50.856;12.776;2023-04-16T10:56:42;8.80;;;7.90;;
7377;SDS011;3730;50.856;12.776;2023-04-16T10:59:09;9.20;;;8.30;;
7377;SDS011;3730;50.856;12.776;2023-04-16T11:01:36;9.23;;;8.33;;
7377;SDS011;3730;50.856;12.776;2023-04-16T11:10:11;9.07;;;8.17;;
7377;SDS011;3730;50.856;12.776;2023-04-16T11:12:40;9.40;;;8.37;;
7377;SDS011;3730;50.856;12.776;2023-04-16T11:15:09;9.97;;;8.13;;
7377;SDS011;3730;50.856;12.776;2023-04-16T11:17:36;10.13;;;9.07;;
7377;SDS011;3730;50.856;12.776;2023-04-16T11:20:04;10.13;;;9.13;;
7377;SDS011;3730;50.856;12.776;2023-04-16T11:22:30;9.87;;;8.87;;
7377;SDS011;3730;50.856;12.776;2023-04-16T11:24:59;9.60;;;8.67;;
7377;SDS011;3730;50.856;12.776;2023-04-16T11:27:25;10.07;;;8.73;;
7377;SDS011;3730;50.856;12.776;2023-04-16T11:29:58;10.00;;;9.00;;
7377;SDS011;3730;50.856;12.776;2023-04-16T11:32:25;9.90;;;8.90;;
7377;SDS011;3730;50.856;12.776;2023-04-16T11:34:51;10.17;;;8.57;;
7377;SDS011;3730;50.856;12.776;2023-04-16T11:37:20;9.70;;;8.70;;
7377;SDS011;3730;50.856;12.776;2023-04-16T11:39:50;11.07;;;8.53;;
7377;SDS011;3730;50.856;12.776;2023-04-16T11:42:20;8.60;;;7.73;;
7377;SDS011;3730;50.856;12.776;2023-04-16T11:44:50;8.90;;;8.00;;
7377;SDS011;3730;50.856;12.776;2023-04-16T11:47:16;9.03;;;7.23;;
7377;SDS011;3730;50.856;12.776;2023-04-16T11:49:42;8.83;;;7.83;;
7377;SDS011;3730;50.856;12.776;2023-04-16T11:52:08;8.00;;;7.23;;
7377;SDS011;3730;50.856;12.776;2023-04-16T11:54:34;8.23;;;7.33;;
7377;SDS011;3730;50.856;12.776;2023-04-16T11:57:00;8.23;;;7.30;;
7377;SDS011;3730;50.856;12.776;2023-04-16T11:59:28;8.47;;;7.67;;
7377;SDS011;3730;50.856;12.776;2023-04-16T12:01:55;8.60;;;7.70;;
7377;SDS011;3730;50.856;12.776;2023-04-16T12:04:21;8.30;;;7.50;;
7377;SDS011;3730;50.856;12.776;2023-04-16T12:07:03;7.60;;;6.90;;
7377;SDS011;3730;50.856;12.776;2023-04-16T12:09:36;8.73;;;7.30;;
7377;SDS011;3730;50.856;12.776;2023-04-16T12:12:03;9.00;;;8.20;;
7377;SDS011;3730;50.856;12.776;2023-04-16T12:14:30;10.60;;;9.50;;
7377;SDS011;3730;50.856;12.776;2023-04-16T12:17:14;9.70;;;8.70;;
7377;SDS011;3730;50.856;12.776;2023-04-16T12:19:58;9.00;;;8.10;;
7377;SDS011;3730;50.856;12.776;2023-04-16T12:22:29;9.70;;;7.13;;
7377;SDS011;3730;50.856;12.776;2023-04-16T12:25:02;8.90;;;8.00;;
7377;SDS011;3730;50.856;12.776;2023-04-16T12:27:43;9.53;;;8.53;;
7377;SDS011;3730;50.856;12.776;2023-04-16T12:30:10;9.73;;;8.80;;
7377;SDS011;3730;50.856;12.776;2023-04-16T12:32:37;11.83;;;9.30;;
7377;SDS011;3730;50.856;12.776;2023-04-16T12:35:03;10.50;;;9.40;;
7377;SDS011;3730;50.856;12.776;2023-04-16T12:37:29;9.27;;;8.27;;
7377;SDS011;3730;50.856;12.776;2023-04-16T12:39:56;9.07;;;8.17;;
7377;SDS011;3730;50.856;12.776;2023-04-16T12:42:21;8.67;;;7.50;;
7377;SDS011;3730;50.856;12.776;2023-04-16T12:44:47;9.43;;;8.53;;
7377;SDS011;3730;50.856;12.776;2023-04-16T12:47:13;9.13;;;8.23;;
7377;SDS011;3730;50.856;12.776;2023-04-16T12:49:38;10.03;;;9.03;;
7377;SDS011;3730;50.856;12.776;2023-04-16T12:52:04;11.43;;;10.23;;
7377;SDS011;3730;50.856;12.776;2023-04-16T12:54:30;11.80;;;10.60;;
7377;SDS011;3730;50.856;12.776;2023-04-16T12:56:56;14.47;;;11.33;;
7377;SDS011;3730;50.856;12.776;2023-04-16T12:59:22;13.10;;;11.70;;
7377;SDS011;3730;50.856;12.776;2023-04-16T13:01:48;13.13;;;11.73;;
7377;SDS011;3730;50.856;12.776;2023-04-16T13:04:14;13.43;;;11.17;;
7377;SDS011;3730;50.856;12.776;2023-04-16T13:06:42;12.57;;;11.27;;
7377;SDS011;3730;50.856;12.776;2023-04-16T13:09:08;11.87;;;10.57;;
7377;SDS011;3730;50.856;12.776;2023-04-16T13:11:35;12.43;;;11.07;;
7377;SDS011;3730;50.856;12.776;2023-04-16T13:14:01;11.57;;;10.37;;
7377;SDS011;3730;50.856;12.776;2023-04-16T13:16:26;10.70;;;9.50;;
7377;SDS011;3730;50.856;12.776;2023-04-16T13:18:52;12.10;;;10.37;;
7377;SDS011;3730;50.856;12.776;2023-04-16T13:21:17;10.67;;;9.50;;
7377;SDS011;3730;50.856;12.776;2023-04-16T13:23:43;10.60;;;9.40;;
7377;SDS011;3730;50.856;12.776;2023-04-16T13:26:09;10.43;;;9.43;;
7377;SDS011;3730;50.856;12.776;2023-04-16T13:28:36;9.50;;;8.30;;
7377;SDS011;3730;50.856;12.776;2023-04-16T13:31:02;8.13;;;7.33;;
7377;SDS011;3730;50.856;12.776;2023-04-16T13:33:28;8.57;;;7.67;;
7377;SDS011;3730;50.856;12.776;2023-04-16T13:35:54;8.60;;;7.80;;
7377;SDS011;3730;50.856;12.776;2023-04-16T13:38:20;7.47;;;6.73;;
7377;SDS011;3730;50.856;12.776;2023-04-16T13:40:45;9.33;;;8.40;;
7377;SDS011;3730;50.856;12.776;2023-04-16T13:43:11;10.20;;;7.67;;
7377;SDS011;3730;50.856;12.776;2023-04-16T13:45:37;7.70;;;6.53;;
7377;SDS011;3730;50.856;12.776;2023-04-16T13:48:03;9.73;;;7.67;;
7377;SDS011;3730;50.856;12.776;2023-04-16T13:50:29;8.00;;;7.30;;
7377;SDS011;3730;50.856;12.776;2023-04-16T13:52:55;6.27;;;5.67;;
7377;SDS011;3730;50.856;12.776;2023-04-16T13:55:20;7.20;;;6.50;;
7377;SDS011;3730;50.856;12.776;2023-04-16T13:57:46;8.10;;;6.80;;
7377;SDS011;3730;50.856;12.776;2023-04-16T14:00:13;6.93;;;6.30;;
7377;SDS011;3730;50.856;12.776;2023-04-16T14:02:42;7.13;;;6.40;;
7377;SDS011;3730;50.856;12.776;2023-04-16T14:05:09;7.10;;;5.60;;
7377;SDS011;3730;50.856;12.776;2023-04-16T14:07:36;6.37;;;5.17;;
7377;SDS011;3730;50.856;12.776;2023-04-16T14:10:01;7.00;;;5.30;;
7377;SDS011;3730;50.856;12.776;2023-04-16T14:12:27;5.93;;;5.33;;
7377;SDS011;3730;50.856;12.776;2023-04-16T14:14:53;7.07;;;5.43;;
7377;SDS011;3730;50.856;12.776;2023-04-16T14:17:19;4.27;;;3.73;;
7377;SDS011;3730;50.856;12.776;2023-04-16T14:19:44;5.40;;;4.50;;
7377;SDS011;3730;50.856;12.776;2023-04-16T14:22:10;6.00;;;4.10;;
7377;SDS011;3730;50.856;12.776;2023-04-16T14:24:36;5.23;;;4.07;;
7377;SDS011;3730;50.856;12.776;2023-04-16T14:27:01;5.10;;;3.80;;
7377;SDS011;3730;50.856;12.776;2023-04-16T14:29:27;4.30;;;3.90;;
7377;SDS011;3730;50.856;12.776;2023-04-16T14:31:52;4.80;;;3.97;;
7377;SDS011;3730;50.856;12.776;2023-04-16T14:34:18;4.33;;;3.90;;
7377;SDS011;3730;50.856;12.776;2023-04-16T14:36:44;5.37;;;4.30;;
7377;SDS011;3730;50.856;12.776;2023-04-16T14:39:09;4.10;;;3.70;;
7377;SDS011;3730;50.856;12.776;2023-04-16T14:41:35;5.50;;;4.47;;
7377;SDS011;3730;50.856;12.776;2023-04-16T14:44:01;4.70;;;4.30;;
7377;SDS011;3730;50.856;12.776;2023-04-16T14:46:28;5.23;;;4.13;;
7377;SDS011;3730;50.856;12.776;2023-04-16T14:48:54;5.00;;;4.50;;
7377;SDS011;3730;50.856;12.776;2023-04-16T14:51:20;5.33;;;4.20;;